sensor_id;sensor_type;location;lat;lon;timestamp;P1;durP1;ratioP1;P2;durP2;ratioP2
13147;SDS011;6639;50.956;4.242;2023-02-26T00:01:32;9.35;;;4.75;;
13147;SDS011;6639;50.956;4.242;2023-02-26T00:04:03;11.15;;;4.30;;
13147;SDS011;6639;50.956;4.242;2023-02-26T00:06:32;6.18;;;4.30;;
13147;SDS011;6639;50.956;4.242;2023-02-26T00:09:00;5.57;;;3.80;;
13147;SDS011;6639;50.956;4.242;2023-02-26T00:11:27;5.87;;;4.00;;
13147;SDS011;6639;50.956;4.242;2023-02-26T00:13:55;10.80;;;3.97;;
13147;SDS011;6639;50.956;4.242;2023-02-26T00:16:25;6.17;;;3.67;;
13147;SDS011;6639;50.956;4.242;2023-02-26T00:18:53;6.97;;;3.70;;
13147;SDS011;6639;50.956;4.242;2023-02-26T00:21:23;7.00;;;3.55;;
13147;SDS011;6639;50.956;4.242;2023-02-26T00:23:51;5.68;;;3.55;;
13147;SDS011;6639;50.956;4.242;2023-02-26T00:26:20;7.37;;;3.87;;
13147;SDS011;6639;50.956;4.242;2023-02-26T00:28:49;9.53;;;3.80;;
13147;SDS011;6639;50.956;4.242;2023-02-26T00:31:16;6.63;;;3.43;;
13147;SDS011;6639;50.956;4.242;2023-02-26T00:33:48;7.27;;;3.93;;
13147;SDS011;6639;50.956;4.242;2023-02-26T00:36:19;8.63;;;4.27;;
13147;SDS011;6639;50.956;4.242;2023-02-26T00:38:52;8.93;;;4.07;;
13147;SDS011;6639;50.956;4.242;2023-02-26T00:41:30;8.07;;;3.80;;
13147;SDS011;6639;50.956;4.242;2023-02-26T00:43:57;7.30;;;4.00;;
13147;SDS011;6639;50.956;4.242;2023-02-26T00:46:27;7.93;;;3.60;;
13147;SDS011;6639;50.956;4.242;2023-02-26T00:49:02;7.27;;;3.20;;
13147;SDS011;6639;50.956;4.242;2023-02-26T00:51:40;7.55;;;3.95;;
13147;SDS011;6639;50.956;4.242;2023-02-26T00:54:15;6.00;;;3.30;;
13147;SDS011;6639;50.956;4.242;2023-02-26T00:56:44;10.40;;;4.10;;
13147;SDS011;6639;50.956;4.242;2023-02-26T00:59:11;6.30;;;3.40;;
13147;SDS011;6639;50.956;4.242;2023-02-26T01:01:38;6.50;;;3.70;;
13147;SDS011;6639;50.956;4.242;2023-02-26T01:04:05;4.03;;;3.30;;
13147;SDS011;6639;50.956;4.242;2023-02-26T01:06:33;4.93;;;3.47;;
13147;SDS011;6639;50.956;4.242;2023-02-26T01:09:04;6.27;;;2.93;;
13147;SDS011;6639;50.956;4.242;2023-02-26T01:11:42;6.33;;;3.90;;
13147;SDS011;6639;50.956;4.242;2023-02-26T01:14:09;5.67;;;4.10;;
13147;SDS011;6639;50.956;4.242;2023-02-26T01:16:41;6.03;;;3.47;;
13147;SDS011;6639;50.956;4.242;2023-02-26T01:19:14;4.90;;;3.00;;
13147;SDS011;6639;50.956;4.242;2023-02-26T01:21:50;5.33;;;3.77;;
13147;SDS011;6639;50.956;4.242;2023-02-26T01:24:21;5.23;;;3.53;;
13147;SDS011;6639;50.956;4.242;2023-02-26T01:26:52;5.50;;;3.23;;
13147;SDS011;6639;50.956;4.242;2023-02-26T01:29:19;7.80;;;4.00;;
13147;SDS011;6639;50.956;4.242;2023-02-26T01:31:48;7.30;;;3.53;;
13147;SDS011;6639;50.956;4.242;2023-02-26T01:34:22;6.03;;;3.97;;
13147;SDS011;6639;50.956;4.242;2023-02-26T01:36:55;7.63;;;3.87;;
13147;SDS011;6639;50.956;4.242;2023-02-26T01:39:27;6.97;;;3.97;;
13147;SDS011;6639;50.956;4.242;2023-02-26T01:42:04;7.80;;;3.87;;
13147;SDS011;6639;50.956;4.242;2023-02-26T01:44:40;6.23;;;3.30;;
13147;SDS011;6639;50.956;4.242;2023-02-26T01:47:15;7.27;;;3.30;;
13147;SDS011;6639;50.956;4.242;2023-02-26T01:49:46;7.13;;;3.80;;
13147;SDS011;6639;50.956;4.242;2023-02-26T01:55:26;6.50;;;3.20;;
13147;SDS011;6639;50.956;4.242;2023-02-26T01:57:56;7.27;;;4.40;;
13147;SDS011;6639;50.956;4.242;2023-02-26T02:00:25;10.43;;;4.13;;
13147;SDS011;6639;50.956;4.242;2023-02-26T02:02:52;4.37;;;3.73;;
13147;SDS011;6639;50.956;4.242;2023-02-26T02:05:20;7.60;;;4.10;;
13147;SDS011;6639;50.956;4.242;2023-02-26T02:07:51;4.80;;;3.47;;
13147;SDS011;6639;50.956;4.242;2023-02-26T02:10:18;9.50;;;4.17;;
13147;SDS011;6639;50.956;4.242;2023-02-26T02:12:47;7.10;;;3.70;;
13147;SDS011;6639;50.956;4.242;2023-02-26T02:15:27;8.40;;;3.47;;
13147;SDS011;6639;50.956;4.242;2023-02-26T02:18:03;4.67;;;3.53;;
13147;SDS011;6639;50.956;4.242;2023-02-26T02:20:42;5.57;;;3.70;;
13147;SDS011;6639;50.956;4.242;2023-02-26T02:23:26;7.10;;;3.43;;
13147;SDS011;6639;50.956;4.242;2023-02-26T02:29:25;7.13;;;3.30;;
13147;SDS011;6639;50.956;4.242;2023-02-26T02:32:14;7.13;;;3.47;;
13147;SDS011;6639;50.956;4.242;2023-02-26T02:34:47;9.47;;;3.53;;
13147;SDS011;6639;50.956;4.242;2023-02-26T02:37:18;7.83;;;3.50;;
13147;SDS011;6639;50.956;4.242;2023-02-26T02:39:48;6.87;;;3.33;;
13147;SDS011;6639;50.956;4.242;2023-02-26T02:42:22;5.73;;;2.90;;
13147;SDS011;6639;50.956;4.242;2023-02-26T02:44:55;5.70;;;2.63;;
13147;SDS011;6639;50.956;4.242;2023-02-26T02:47:26;6.13;;;2.87;;
13147;SDS011;6639;50.956;4.242;2023-02-26T02:49:58;5.00;;;2.67;;
13147;SDS011;6639;50.956;4.242;2023-02-26T02:52:31;8.77;;;2.80;;
13147;SDS011;6639;50.956;4.242;2023-02-26T02:55:04;7.37;;;2.40;;
13147;SDS011;6639;50.956;4.242;2023-02-26T02:57:36;4.80;;;2.00;;
13147;SDS011;6639;50.956;4.242;2023-02-26T03:00:09;5.60;;;2.23;;
13147;SDS011;6639;50.956;4.242;2023-02-26T03:02:40;4.13;;;1.80;;
13147;SDS011;6639;50.956;4.242;2023-02-26T03:05:13;5.03;;;1.87;;
13147;SDS011;6639;50.956;4.242;2023-02-26T03:07:42;4.30;;;1.80;;
13147;SDS011;6639;50.956;4.242;2023-02-26T03:10:12;3.77;;;1.70;;
13147;SDS011;6639;50.956;4.242;2023-02-26T03:12:40;6.87;;;1.80;;
13147;SDS011;6639;50.956;4.242;2023-02-26T03:15:07;2.23;;;1.50;;
13147;SDS011;6639;50.956;4.242;2023-02-26T03:17:35;3.77;;;1.87;;
13147;SDS011;6639;50.956;4.242;2023-02-26T03:20:14;4.43;;;1.40;;
13147;SDS011;6639;50.956;4.242;2023-02-26T03:22:46;3.97;;;1.53;;
13147;SDS011;6639;50.956;4.242;2023-02-26T03:25:22;3.00;;;1.80;;
13147;SDS011;6639;50.956;4.242;2023-02-26T03:27:56;6.30;;;1.53;;
13147;SDS011;6639;50.956;4.242;2023-02-26T03:30:32;3.07;;;1.30;;
13147;SDS011;6639;50.956;4.242;2023-02-26T03:33:04;4.77;;;1.70;;
13147;SDS011;6639;50.956;4.242;2023-02-26T03:35:37;2.67;;;1.60;;
13147;SDS011;6639;50.956;4.242;2023-02-26T03:38:12;3.40;;;1.33;;
13147;SDS011;6639;50.956;4.242;2023-02-26T03:40:46;6.40;;;1.87;;
13147;SDS011;6639;50.956;4.242;2023-02-26T03:43:16;4.67;;;1.63;;
13147;SDS011;6639;50.956;4.242;2023-02-26T03:45:46;4.03;;;1.20;;
13147;SDS011;6639;50.956;4.242;2023-02-26T03:48:18;4.53;;;1.77;;
13147;SDS011;6639;50.956;4.242;2023-02-26T03:50:50;4.03;;;1.93;;
13147;SDS011;6639;50.956;4.242;2023-02-26T03:53:21;6.77;;;1.47;;
13147;SDS011;6639;50.956;4.242;2023-02-26T03:55:51;3.27;;;1.80;;
13147;SDS011;6639;50.956;4.242;2023-02-26T03:58:23;5.43;;;1.50;;
13147;SDS011;6639;50.956;4.242;2023-02-26T04:00:51;4.23;;;1.40;;
13147;SDS011;6639;50.956;4.242;2023-02-26T04:03:25;2.23;;;1.43;;
13147;SDS011;6639;50.956;4.242;2023-02-26T04:05:55;2.93;;;1.53;;
13147;SDS011;6639;50.956;4.242;2023-02-26T04:08:24;3.13;;;1.47;;
13147;SDS011;6639;50.956;4.242;2023-02-26T04:10:54;3.20;;;1.50;;
13147;SDS011;6639;50.956;4.242;2023-02-26T04:13:23;4.47;;;1.47;;
13147;SDS011;6639;50.956;4.242;2023-02-26T04:15:52;5.90;;;1.33;;
13147;SDS011;6639;50.956;4.242;2023-02-26T04:18:19;2.67;;;1.50;;
13147;SDS011;6639;50.956;4.242;2023-02-26T04:20:47;3.10;;;1.43;;
13147;SDS011;6639;50.956;4.242;2023-02-26T04:23:14;4.43;;;1.83;;
13147;SDS011;6639;50.956;4.242;2023-02-26T04:25:43;4.00;;;1.67;;
13147;SDS011;6639;50.956;4.242;2023-02-26T04:28:10;2.33;;;1.43;;
13147;SDS011;6639;50.956;4.242;2023-02-26T04:30:37;2.60;;;1.63;;
13147;SDS011;6639;50.956;4.242;2023-02-26T04:33:04;3.40;;;1.70;;
13147;SDS011;6639;50.956;4.242;2023-02-26T04:35:31;5.13;;;1.73;;
13147;SDS011;6639;50.956;4.242;2023-02-26T04:38:00;2.63;;;1.57;;
13147;SDS011;6639;50.956;4.242;2023-02-26T04:40:27;4.70;;;1.40;;
13147;SDS011;6639;50.956;4.242;2023-02-26T04:42:54;3.13;;;1.80;;
13147;SDS011;6639;50.956;4.242;2023-02-26T04:45:20;5.60;;;1.60;;
13147;SDS011;6639;50.956;4.242;2023-02-26T04:47:47;3.93;;;1.43;;
13147;SDS011;6639;50.956;4.242;2023-02-26T04:50:14;5.87;;;2.00;;
13147;SDS011;6639;50.956;4.242;2023-02-26T04:52:41;4.33;;;1.43;;
13147;SDS011;6639;50.956;4.242;2023-02-26T04:55:10;4.67;;;1.90;;
13147;SDS011;6639;50.956;4.242;2023-02-26T04:57:37;1.50;;;1.40;;
13147;SDS011;6639;50.956;4.242;2023-02-26T05:00:04;5.10;;;1.50;;
13147;SDS011;6639;50.956;4.242;2023-02-26T05:02:32;3.40;;;1.63;;
13147;SDS011;6639;50.956;4.242;2023-02-26T05:04:59;5.23;;;1.60;;
13147;SDS011;6639;50.956;4.242;2023-02-26T05:07:26;3.03;;;1.03;;
13147;SDS011;6639;50.956;4.242;2023-02-26T05:09:53;3.40;;;1.20;;
13147;SDS011;6639;50.956;4.242;2023-02-26T05:12:21;3.83;;;1.30;;
13147;SDS011;6639;50.956;4.242;2023-02-26T05:14:48;2.73;;;1.10;;
13147;SDS011;6639;50.956;4.242;2023-02-26T05:17:15;2.70;;;1.40;;
13147;SDS011;6639;50.956;4.242;2023-02-26T05:19:42;2.87;;;1.13;;
13147;SDS011;6639;50.956;4.242;2023-02-26T05:22:09;1.73;;;1.30;;
13147;SDS011;6639;50.956;4.242;2023-02-26T05:24:36;4.80;;;1.37;;
13147;SDS011;6639;50.956;4.242;2023-02-26T05:27:03;6.57;;;1.90;;
13147;SDS011;6639;50.956;4.242;2023-02-26T05:29:32;3.10;;;1.70;;
13147;SDS011;6639;50.956;4.242;2023-02-26T05:31:59;5.60;;;1.80;;
13147;SDS011;6639;50.956;4.242;2023-02-26T05:34:26;7.30;;;1.40;;
13147;SDS011;6639;50.956;4.242;2023-02-26T05:36:53;3.13;;;1.50;;
13147;SDS011;6639;50.956;4.242;2023-02-26T05:39:20;3.53;;;1.50;;
13147;SDS011;6639;50.956;4.242;2023-02-26T05:41:47;4.60;;;1.07;;
13147;SDS011;6639;50.956;4.242;2023-02-26T05:44:15;6.13;;;1.47;;
13147;SDS011;6639;50.956;4.242;2023-02-26T05:46:44;7.03;;;1.57;;
13147;SDS011;6639;50.956;4.242;2023-02-26T05:49:11;3.80;;;1.50;;
13147;SDS011;6639;50.956;4.242;2023-02-26T05:51:38;4.00;;;1.40;;
13147;SDS011;6639;50.956;4.242;2023-02-26T05:54:07;4.07;;;1.73;;
13147;SDS011;6639;50.956;4.242;2023-02-26T05:56:34;5.43;;;1.20;;
13147;SDS011;6639;50.956;4.242;2023-02-26T05:59:01;3.90;;;1.20;;
13147;SDS011;6639;50.956;4.242;2023-02-26T06:01:29;4.97;;;1.40;;
13147;SDS011;6639;50.956;4.242;2023-02-26T06:03:57;3.90;;;1.70;;
13147;SDS011;6639;50.956;4.242;2023-02-26T06:06:24;9.13;;;1.27;;
13147;SDS011;6639;50.956;4.242;2023-02-26T06:08:51;4.30;;;1.60;;
13147;SDS011;6639;50.956;4.242;2023-02-26T06:11:18;6.47;;;1.57;;
13147;SDS011;6639;50.956;4.242;2023-02-26T06:13:46;4.10;;;1.53;;
13147;SDS011;6639;50.956;4.242;2023-02-26T06:16:13;7.33;;;1.67;;
13147;SDS011;6639;50.956;4.242;2023-02-26T06:18:40;5.83;;;1.40;;
13147;SDS011;6639;50.956;4.242;2023-02-26T06:21:08;4.33;;;1.83;;
13147;SDS011;6639;50.956;4.242;2023-02-26T06:23:35;3.77;;;1.53;;
13147;SDS011;6639;50.956;4.242;2023-02-26T06:26:02;2.80;;;1.10;;
13147;SDS011;6639;50.956;4.242;2023-02-26T06:28:29;3.23;;;1.70;;
13147;SDS011;6639;50.956;4.242;2023-02-26T06:30:56;2.27;;;1.27;;
13147;SDS011;6639;50.956;4.242;2023-02-26T06:33:24;3.47;;;1.27;;
13147;SDS011;6639;50.956;4.242;2023-02-26T06:35:51;3.33;;;1.27;;
13147;SDS011;6639;50.956;4.242;2023-02-26T06:38:21;4.30;;;1.33;;
13147;SDS011;6639;50.956;4.242;2023-02-26T06:40:51;5.13;;;1.10;;
13147;SDS011;6639;50.956;4.242;2023-02-26T06:43:18;4.83;;;1.13;;
13147;SDS011;6639;50.956;4.242;2023-02-26T06:45:45;2.87;;;0.87;;
13147;SDS011;6639;50.956;4.242;2023-02-26T06:48:12;2.53;;;1.20;;
13147;SDS011;6639;50.956;4.242;2023-02-26T06:50:39;3.40;;;1.00;;
13147;SDS011;6639;50.956;4.242;2023-02-26T06:53:06;4.30;;;1.00;;
13147;SDS011;6639;50.956;4.242;2023-02-26T06:55:34;2.83;;;1.10;;
13147;SDS011;6639;50.956;4.242;2023-02-26T06:58:01;5.30;;;1.77;;
13147;SDS011;6639;50.956;4.242;2023-02-26T07:00:28;4.23;;;1.27;;
13147;SDS011;6639;50.956;4.242;2023-02-26T07:02:55;3.10;;;1.10;;
13147;SDS011;6639;50.956;4.242;2023-02-26T07:05:22;2.37;;;1.17;;
13147;SDS011;6639;50.956;4.242;2023-02-26T07:07:49;1.70;;;1.00;;
13147;SDS011;6639;50.956;4.242;2023-02-26T07:10:16;4.37;;;1.47;;
13147;SDS011;6639;50.956;4.242;2023-02-26T07:12:46;4.60;;;1.23;;
13147;SDS011;6639;50.956;4.242;2023-02-26T07:15:13;2.37;;;0.97;;
13147;SDS011;6639;50.956;4.242;2023-02-26T07:17:40;2.80;;;1.00;;
13147;SDS011;6639;50.956;4.242;2023-02-26T07:20:08;3.30;;;1.17;;
13147;SDS011;6639;50.956;4.242;2023-02-26T07:22:36;3.33;;;1.50;;
13147;SDS011;6639;50.956;4.242;2023-02-26T07:25:04;4.77;;;1.30;;
13147;SDS011;6639;50.956;4.242;2023-02-26T07:27:32;5.57;;;2.00;;
13147;SDS011;6639;50.956;4.242;2023-02-26T07:30:00;2.20;;;1.30;;
13147;SDS011;6639;50.956;4.242;2023-02-26T07:32:28;6.00;;;1.95;;
13147;SDS011;6639;50.956;4.242;2023-02-26T07:34:55;3.80;;;1.67;;
13147;SDS011;6639;50.956;4.242;2023-02-26T07:37:22;4.82;;;1.00;;
13147;SDS011;6639;50.956;4.242;2023-02-26T07:39:49;4.13;;;1.60;;
13147;SDS011;6639;50.956;4.242;2023-02-26T07:42:16;2.45;;;1.08;;
13147;SDS011;6639;50.956;4.242;2023-02-26T07:44:43;6.13;;;1.27;;
13147;SDS011;6639;50.956;4.242;2023-02-26T07:47:12;1.38;;;1.13;;
13147;SDS011;6639;50.956;4.242;2023-02-26T07:49:39;3.60;;;1.13;;
13147;SDS011;6639;50.956;4.242;2023-02-26T07:52:06;2.50;;;1.40;;
13147;SDS011;6639;50.956;4.242;2023-02-26T07:54:33;2.28;;;0.90;;
13147;SDS011;6639;50.956;4.242;2023-02-26T07:57:00;3.10;;;1.42;;
13147;SDS011;6639;50.956;4.242;2023-02-26T07:59:28;4.70;;;1.25;;
13147;SDS011;6639;50.956;4.242;2023-02-26T08:01:55;1.52;;;0.82;;
13147;SDS011;6639;50.956;4.242;2023-02-26T08:04:23;4.70;;;0.98;;
13147;SDS011;6639;50.956;4.242;2023-02-26T08:06:50;2.58;;;1.20;;
13147;SDS011;6639;50.956;4.242;2023-02-26T08:09:18;5.13;;;1.48;;
13147;SDS011;6639;50.956;4.242;2023-02-26T08:11:45;2.90;;;1.08;;
13147;SDS011;6639;50.956;4.242;2023-02-26T08:14:12;2.55;;;1.13;;
13147;SDS011;6639;50.956;4.242;2023-02-26T08:16:40;2.38;;;0.98;;
13147;SDS011;6639;50.956;4.242;2023-02-26T08:19:06;2.85;;;1.30;;
13147;SDS011;6639;50.956;4.242;2023-02-26T08:21:35;2.03;;;1.42;;
13147;SDS011;6639;50.956;4.242;2023-02-26T08:24:02;3.38;;;1.20;;
13147;SDS011;6639;50.956;4.242;2023-02-26T08:26:29;1.58;;;0.98;;
13147;SDS011;6639;50.956;4.242;2023-02-26T08:28:56;1.50;;;1.17;;
13147;SDS011;6639;50.956;4.242;2023-02-26T08:31:23;2.22;;;0.80;;
13147;SDS011;6639;50.956;4.242;2023-02-26T08:33:52;5.00;;;1.38;;
13147;SDS011;6639;50.956;4.242;2023-02-26T08:36:19;2.10;;;1.25;;
13147;SDS011;6639;50.956;4.242;2023-02-26T08:38:48;3.67;;;1.20;;
13147;SDS011;6639;50.956;4.242;2023-02-26T08:41:15;4.25;;;1.10;;
13147;SDS011;6639;50.956;4.242;2023-02-26T08:43:42;2.70;;;1.10;;
13147;SDS011;6639;50.956;4.242;2023-02-26T08:46:09;4.10;;;1.30;;
13147;SDS011;6639;50.956;4.242;2023-02-26T08:48:36;2.47;;;0.93;;
13147;SDS011;6639;50.956;4.242;2023-02-26T08:51:03;5.50;;;1.20;;
13147;SDS011;6639;50.956;4.242;2023-02-26T08:53:30;1.23;;;0.77;;
13147;SDS011;6639;50.956;4.242;2023-02-26T08:55:58;2.65;;;0.85;;
13147;SDS011;6639;50.956;4.242;2023-02-26T08:58:25;2.53;;;1.08;;
13147;SDS011;6639;50.956;4.242;2023-02-26T09:00:52;2.97;;;0.80;;
13147;SDS011;6639;50.956;4.242;2023-02-26T09:03:19;1.52;;;0.80;;
13147;SDS011;6639;50.956;4.242;2023-02-26T09:05:46;1.83;;;0.85;;
13147;SDS011;6639;50.956;4.242;2023-02-26T09:08:13;4.53;;;1.00;;
13147;SDS011;6639;50.956;4.242;2023-02-26T09:10:40;5.05;;;1.00;;
13147;SDS011;6639;50.956;4.242;2023-02-26T09:13:09;3.20;;;1.20;;
13147;SDS011;6639;50.956;4.242;2023-02-26T09:15:36;0.85;;;0.70;;
13147;SDS011;6639;50.956;4.242;2023-02-26T09:18:03;3.78;;;1.25;;
13147;SDS011;6639;50.956;4.242;2023-02-26T09:20:30;3.40;;;1.00;;
13147;SDS011;6639;50.956;4.242;2023-02-26T09:22:59;3.47;;;1.10;;
13147;SDS011;6639;50.956;4.242;2023-02-26T09:25:26;1.90;;;0.90;;
13147;SDS011;6639;50.956;4.242;2023-02-26T09:27:53;2.67;;;0.95;;
13147;SDS011;6639;50.956;4.242;2023-02-26T09:30:21;0.82;;;0.73;;
13147;SDS011;6639;50.956;4.242;2023-02-26T09:32:48;1.52;;;0.93;;
13147;SDS011;6639;50.956;4.242;2023-02-26T09:35:15;1.65;;;1.10;;
13147;SDS011;6639;50.956;4.242;2023-02-26T09:37:43;0.82;;;0.70;;
13147;SDS011;6639;50.956;4.242;2023-02-26T09:40:10;1.08;;;0.85;;
13147;SDS011;6639;50.956;4.242;2023-02-26T09:42:50;1.83;;;0.80;;
13147;SDS011;6639;50.956;4.242;2023-02-26T09:45:39;2.22;;;0.70;;
13147;SDS011;6639;50.956;4.242;2023-02-26T09:48:09;0.90;;;0.70;;
13147;SDS011;6639;50.956;4.242;2023-02-26T09:50:41;2.33;;;0.73;;
13147;SDS011;6639;50.956;4.242;2023-02-26T09:53:13;1.67;;;0.95;;
13147;SDS011;6639;50.956;4.242;2023-02-26T09:55:46;1.58;;;0.70;;
13147;SDS011;6639;50.956;4.242;2023-02-26T09:58:16;0.77;;;0.77;;
13147;SDS011;6639;50.956;4.242;2023-02-26T10:00:51;3.25;;;1.13;;
13147;SDS011;6639;50.956;4.242;2023-02-26T10:03:25;2.42;;;0.80;;
13147;SDS011;6639;50.956;4.242;2023-02-26T10:06:03;0.95;;;0.73;;
13147;SDS011;6639;50.956;4.242;2023-02-26T10:08:44;2.15;;;1.15;;
13147;SDS011;6639;50.956;4.242;2023-02-26T10:11:25;1.77;;;0.88;;
13147;SDS011;6639;50.956;4.242;2023-02-26T10:13:57;0.93;;;0.70;;
13147;SDS011;6639;50.956;4.242;2023-02-26T10:16:32;2.15;;;1.30;;
13147;SDS011;6639;50.956;4.242;2023-02-26T10:19:03;2.38;;;0.95;;
13147;SDS011;6639;50.956;4.242;2023-02-26T10:21:34;1.40;;;0.75;;
13147;SDS011;6639;50.956;4.242;2023-02-26T10:24:08;3.25;;;0.90;;
13147;SDS011;6639;50.956;4.242;2023-02-26T10:26:39;1.83;;;1.00;;
13147;SDS011;6639;50.956;4.242;2023-02-26T10:29:13;0.90;;;0.90;;
13147;SDS011;6639;50.956;4.242;2023-02-26T10:31:51;0.90;;;0.60;;
13147;SDS011;6639;50.956;4.242;2023-02-26T10:34:26;1.20;;;1.00;;
13147;SDS011;6639;50.956;4.242;2023-02-26T10:37:00;4.68;;;0.70;;
13147;SDS011;6639;50.956;4.242;2023-02-26T10:39:35;3.40;;;0.70;;
13147;SDS011;6639;50.956;4.242;2023-02-26T10:42:08;1.27;;;0.60;;
13147;SDS011;6639;50.956;4.242;2023-02-26T10:44:40;1.95;;;0.55;;
13147;SDS011;6639;50.956;4.242;2023-02-26T10:47:14;2.35;;;0.70;;
13147;SDS011;6639;50.956;4.242;2023-02-26T10:49:51;1.98;;;0.52;;
13147;SDS011;6639;50.956;4.242;2023-02-26T10:52:21;2.35;;;0.60;;
13147;SDS011;6639;50.956;4.242;2023-02-26T10:54:55;1.20;;;0.80;;
13147;SDS011;6639;50.956;4.242;2023-02-26T10:57:51;1.58;;;0.70;;
13147;SDS011;6639;50.956;4.242;2023-02-26T11:00:23;0.88;;;0.60;;
13147;SDS011;6639;50.956;4.242;2023-02-26T11:02:51;1.10;;;0.80;;
13147;SDS011;6639;50.956;4.242;2023-02-26T11:05:21;1.70;;;0.70;;
13147;SDS011;6639;50.956;4.242;2023-02-26T11:07:51;1.70;;;0.98;;
13147;SDS011;6639;50.956;4.242;2023-02-26T11:10:21;1.25;;;0.63;;
13147;SDS011;6639;50.956;4.242;2023-02-26T11:12:50;1.45;;;0.68;;
13147;SDS011;6639;50.956;4.242;2023-02-26T11:15:19;2.30;;;1.08;;
13147;SDS011;6639;50.956;4.242;2023-02-26T11:17:48;2.30;;;0.80;;
13147;SDS011;6639;50.956;4.242;2023-02-26T11:20:25;2.35;;;0.60;;
13147;SDS011;6639;50.956;4.242;2023-02-26T11:22:57;1.90;;;0.60;;
13147;SDS011;6639;50.956;4.242;2023-02-26T11:25:26;1.27;;;0.70;;
13147;SDS011;6639;50.956;4.242;2023-02-26T11:27:58;1.15;;;0.73;;
13147;SDS011;6639;50.956;4.242;2023-02-26T11:30:28;1.70;;;0.85;;
13147;SDS011;6639;50.956;4.242;2023-02-26T11:33:03;1.85;;;0.50;;
13147;SDS011;6639;50.956;4.242;2023-02-26T11:35:40;2.33;;;0.90;;
13147;SDS011;6639;50.956;4.242;2023-02-26T11:38:09;3.15;;;1.17;;
13147;SDS011;6639;50.956;4.242;2023-02-26T11:40:45;0.85;;;0.50;;
13147;SDS011;6639;50.956;4.242;2023-02-26T11:43:14;0.50;;;0.50;;
13147;SDS011;6639;50.956;4.242;2023-02-26T11:45:44;1.90;;;0.73;;
13147;SDS011;6639;50.956;4.242;2023-02-26T11:48:17;3.38;;;0.95;;
13147;SDS011;6639;50.956;4.242;2023-02-26T11:50:48;1.55;;;0.77;;
13147;SDS011;6639;50.956;4.242;2023-02-26T11:53:19;1.65;;;0.73;;
13147;SDS011;6639;50.956;4.242;2023-02-26T11:55:51;0.80;;;0.40;;
13147;SDS011;6639;50.956;4.242;2023-02-26T11:58:23;1.38;;;0.70;;
13147;SDS011;6639;50.956;4.242;2023-02-26T12:00:53;0.60;;;0.60;;
13147;SDS011;6639;50.956;4.242;2023-02-26T12:03:27;3.40;;;0.95;;
13147;SDS011;6639;50.956;4.242;2023-02-26T12:06:00;1.58;;;0.85;;
13147;SDS011;6639;50.956;4.242;2023-02-26T12:08:29;1.95;;;0.98;;
13147;SDS011;6639;50.956;4.242;2023-02-26T12:11:12;1.95;;;0.70;;
13147;SDS011;6639;50.956;4.242;2023-02-26T12:13:57;2.05;;;0.80;;
13147;SDS011;6639;50.956;4.242;2023-02-26T12:16:34;0.50;;;0.50;;
13147;SDS011;6639;50.956;4.242;2023-02-26T12:19:12;3.20;;;0.90;;
13147;SDS011;6639;50.956;4.242;2023-02-26T12:22:01;2.40;;;1.05;;
13147;SDS011;6639;50.956;4.242;2023-02-26T12:24:54;2.10;;;0.60;;
13147;SDS011;6639;50.956;4.242;2023-02-26T12:27:43;0.80;;;0.77;;
13147;SDS011;6639;50.956;4.242;2023-02-26T12:30:23;1.25;;;0.85;;
13147;SDS011;6639;50.956;4.242;2023-02-26T12:33:02;0.52;;;0.45;;
13147;SDS011;6639;50.956;4.242;2023-02-26T12:35:41;1.55;;;0.77;;
13147;SDS011;6639;50.956;4.242;2023-02-26T12:38:18;1.85;;;0.80;;
13147;SDS011;6639;50.956;4.242;2023-02-26T12:43:50;3.42;;;0.93;;
13147;SDS011;6639;50.956;4.242;2023-02-26T12:46:23;0.63;;;0.63;;
13147;SDS011;6639;50.956;4.242;2023-02-26T12:52:30;1.20;;;1.10;;
13147;SDS011;6639;50.956;4.242;2023-02-26T12:55:13;1.70;;;1.20;;
13147;SDS011;6639;50.956;4.242;2023-02-26T12:57:57;3.40;;;1.20;;
13147;SDS011;6639;50.956;4.242;2023-02-26T13:00:40;6.63;;;5.53;;
13147;SDS011;6639;50.956;4.242;2023-02-26T13:09:18;2.30;;;2.10;;
13147;SDS011;6639;50.956;4.242;2023-02-26T13:11:59;3.47;;;1.00;;
13147;SDS011;6639;50.956;4.242;2023-02-26T13:14:37;2.00;;;0.82;;
13147;SDS011;6639;50.956;4.242;2023-02-26T13:17:16;1.30;;;0.98;;
13147;SDS011;6639;50.956;4.242;2023-02-26T13:19:49;0.65;;;0.50;;
13147;SDS011;6639;50.956;4.242;2023-02-26T13:22:19;0.70;;;0.70;;
13147;SDS011;6639;50.956;4.242;2023-02-26T13:24:50;2.95;;;1.08;;
13147;SDS011;6639;50.956;4.242;2023-02-26T13:27:23;1.50;;;0.82;;
13147;SDS011;6639;50.956;4.242;2023-02-26T13:29:55;2.33;;;1.02;;
13147;SDS011;6639;50.956;4.242;2023-02-26T13:32:31;3.13;;;1.02;;
13147;SDS011;6639;50.956;4.242;2023-02-26T13:35:03;1.95;;;1.00;;
13147;SDS011;6639;50.956;4.242;2023-02-26T13:37:33;2.75;;;1.20;;
13147;SDS011;6639;50.956;4.242;2023-02-26T13:40:14;2.10;;;0.80;;
13147;SDS011;6639;50.956;4.242;2023-02-26T13:42:57;1.88;;;0.98;;
13147;SDS011;6639;50.956;4.242;2023-02-26T13:45:34;1.58;;;0.82;;
13147;SDS011;6639;50.956;4.242;2023-02-26T13:48:13;0.70;;;0.70;;
13147;SDS011;6639;50.956;4.242;2023-02-26T13:50:48;1.63;;;0.80;;
13147;SDS011;6639;50.956;4.242;2023-02-26T13:53:35;1.13;;;1.00;;
13147;SDS011;6639;50.956;4.242;2023-02-26T13:56:16;0.70;;;0.70;;
13147;SDS011;6639;50.956;4.242;2023-02-26T13:58:47;1.65;;;0.90;;
13147;SDS011;6639;50.956;4.242;2023-02-26T14:01:18;3.00;;;1.13;;
13147;SDS011;6639;50.956;4.242;2023-02-26T14:03:52;1.08;;;0.90;;
13147;SDS011;6639;50.956;4.242;2023-02-26T14:06:41;2.10;;;0.70;;
13147;SDS011;6639;50.956;4.242;2023-02-26T14:12:24;1.65;;;0.68;;
13147;SDS011;6639;50.956;4.242;2023-02-26T14:18:02;1.38;;;1.00;;
13147;SDS011;6639;50.956;4.242;2023-02-26T14:20:31;2.00;;;0.90;;
13147;SDS011;6639;50.956;4.242;2023-02-26T14:23:10;0.85;;;0.70;;
13147;SDS011;6639;50.956;4.242;2023-02-26T14:25:46;1.00;;;0.90;;
13147;SDS011;6639;50.956;4.242;2023-02-26T14:28:28;1.20;;;1.10;;
13147;SDS011;6639;50.956;4.242;2023-02-26T14:31:06;1.08;;;0.98;;
13147;SDS011;6639;50.956;4.242;2023-02-26T14:33:39;3.83;;;1.00;;
13147;SDS011;6639;50.956;4.242;2023-02-26T14:36:14;4.65;;;1.23;;
13147;SDS011;6639;50.956;4.242;2023-02-26T14:38:50;1.83;;;0.82;;
13147;SDS011;6639;50.956;4.242;2023-02-26T14:41:50;1.70;;;0.85;;
13147;SDS011;6639;50.956;4.242;2023-02-26T14:44:27;2.75;;;0.68;;
13147;SDS011;6639;50.956;4.242;2023-02-26T14:46:57;2.88;;;0.90;;
13147;SDS011;6639;50.956;4.242;2023-02-26T14:49:26;2.97;;;1.10;;
13147;SDS011;6639;50.956;4.242;2023-02-26T14:52:05;3.28;;;0.90;;
13147;SDS011;6639;50.956;4.242;2023-02-26T14:54:50;3.35;;;1.02;;
13147;SDS011;6639;50.956;4.242;2023-02-26T14:57:27;2.13;;;1.17;;
13147;SDS011;6639;50.956;4.242;2023-02-26T15:00:09;3.80;;;1.10;;
13147;SDS011;6639;50.956;4.242;2023-02-26T15:02:48;1.13;;;1.02;;
13147;SDS011;6639;50.956;4.242;2023-02-26T15:05:36;2.80;;;1.13;;
13147;SDS011;6639;50.956;4.242;2023-02-26T15:08:17;0.82;;;0.80;;
13147;SDS011;6639;50.956;4.242;2023-02-26T15:11:07;1.20;;;0.82;;
13147;SDS011;6639;50.956;4.242;2023-02-26T15:13:49;2.10;;;1.00;;
13147;SDS011;6639;50.956;4.242;2023-02-26T15:16:42;1.67;;;1.10;;
13147;SDS011;6639;50.956;4.242;2023-02-26T15:19:22;1.40;;;0.60;;
13147;SDS011;6639;50.956;4.242;2023-02-26T15:22:06;0.88;;;0.88;;
13147;SDS011;6639;50.956;4.242;2023-02-26T15:24:46;1.83;;;1.00;;
13147;SDS011;6639;50.956;4.242;2023-02-26T15:27:17;1.80;;;1.00;;
13147;SDS011;6639;50.956;4.242;2023-02-26T15:29:45;1.90;;;0.95;;
13147;SDS011;6639;50.956;4.242;2023-02-26T15:32:22;4.43;;;1.67;;
13147;SDS011;6639;50.956;4.242;2023-02-26T15:34:54;2.30;;;1.17;;
13147;SDS011;6639;50.956;4.242;2023-02-26T15:37:24;1.10;;;1.00;;
13147;SDS011;6639;50.956;4.242;2023-02-26T15:39:54;1.25;;;0.88;;
13147;SDS011;6639;50.956;4.242;2023-02-26T15:42:21;2.78;;;1.17;;
13147;SDS011;6639;50.956;4.242;2023-02-26T15:44:53;1.15;;;0.95;;
13147;SDS011;6639;50.956;4.242;2023-02-26T15:47:23;3.15;;;0.90;;
13147;SDS011;6639;50.956;4.242;2023-02-26T15:49:52;2.20;;;1.17;;
13147;SDS011;6639;50.956;4.242;2023-02-26T15:52:21;1.77;;;0.77;;